Time;durP1;ratioP1;P1;durP2;ratioP2;P2;SDS_P1;SDS_P2;PMS_P1;PMS_P2;Temp;Humidity;BMP_temperature;BMP_pressure;BME280_temperature;BME280_humidity;BME280_pressure;Samples;Min_cycle;Max_cycle;Signal;HPM_P1;HPM_P2
2022/07/07 00:00:58;;;;;;;1.88;0.90;;;12.80;80.70;;;;;;5004214;28;20074;-90
2022/07/07 00:03:24;;;;;;;3.47;1.00;;;12.80;81.20;;;;;;4990641;28;20080;-90
2022/07/07 00:05:50;;;;;;;5.88;0.82;;;12.70;81.20;;;;;;5018233;28;20021;-89
2022/07/07 00:08:15;;;;;;;2.90;0.98;;;12.80;81.60;;;;;;4986475;28;20563;-90
2022/07/07 00:10:41;;;;;;;1.60;1.02;;;12.70;81.80;;;;;;5001094;28;20474;-89
2022/07/07 00:13:06;;;;;;;4.07;0.90;;;12.70;81.70;;;;;;5005612;28;20501;-90
2022/07/07 00:15:32;;;;;;;1.27;0.77;;;12.70;81.30;;;;;;4996563;28;20382;-89
2022/07/07 00:17:58;;;;;;;1.38;0.80;;;12.70;81.30;;;;;;5007340;28;20377;-89
2022/07/07 00:20:24;;;;;;;1.85;1.00;;;12.70;81.20;;;;;;5013180;28;20429;-90
2022/07/07 00:22:49;;;;;;;2.40;1.00;;;12.70;82.00;;;;;;4997896;28;20019;-90
2022/07/07 00:25:15;;;;;;;1.63;0.90;;;12.70;81.80;;;;;;5022215;28;20017;-90
2022/07/07 00:27:41;;;;;;;1.48;0.90;;;12.70;81.90;;;;;;5027682;28;20023;-89
2022/07/07 00:30:07;;;;;;;3.17;0.90;;;12.70;82.00;;;;;;5015592;28;20014;-90
2022/07/07 00:32:33;;;;;;;4.20;1.13;;;12.70;83.90;;;;;;4999128;28;20045;-89
2022/07/07 00:34:58;;;;;;;1.83;1.15;;;12.70;83.60;;;;;;5018262;28;20014;-90
2022/07/07 00:37:24;;;;;;;3.17;1.02;;;12.70;83.10;;;;;;5016905;28;20117;-89
2022/07/07 00:39:50;;;;;;;2.47;1.05;;;12.70;83.20;;;;;;5010695;28;20024;-90
2022/07/07 00:42:16;;;;;;;1.65;1.00;;;12.70;83.70;;;;;;5017872;28;20033;-89
2022/07/07 00:44:42;;;;;;;1.73;0.90;;;12.70;84.10;;;;;;4997250;28;20085;-90
2022/07/07 00:47:09;;;;;;;3.33;0.95;;;12.70;84.20;;;;;;5010570;28;20034;-89
2022/07/07 00:49:38;;;;;;;2.88;0.90;;;12.70;84.60;;;;;;5027875;28;20045;-90
2022/07/07 00:52:11;;;;;;;2.72;0.77;;;12.70;84.30;;;;;;5030482;28;20398;-90
2022/07/07 00:54:37;;;;;;;2.40;0.95;;;12.70;84.00;;;;;;4987076;28;20022;-89
2022/07/07 00:57:04;;;;;;;2.95;0.90;;;12.70;85.00;;;;;;4991733;28;20025;-89
2022/07/07 00:59:30;;;;;;;1.30;1.10;;;12.70;85.10;;;;;;5009042;28;20030;-90
2022/07/07 01:01:57;;;;;;;1.77;0.90;;;12.60;85.80;;;;;;5018342;28;20064;-89
2022/07/07 01:04:23;;;;;;;3.80;1.00;;;12.50;86.30;;;;;;5018835;28;20081;-90
2022/07/07 01:06:49;;;;;;;1.85;1.05;;;12.50;86.90;;;;;;4997401;28;20030;-90
2022/07/07 01:09:15;;;;;;;1.20;1.10;;;12.50;88.00;;;;;;4986653;28;20022;-89
2022/07/07 01:11:51;;;;;;;1.52;1.30;;;12.40;89.20;;;;;;5015899;28;20029;-89
2022/07/07 01:14:17;;;;;;;2.25;1.00;;;12.40;89.60;;;;;;4992646;28;20118;-89
2022/07/07 01:16:44;;;;;;;1.00;0.90;;;12.40;90.00;;;;;;4990880;28;20170;-89
2022/07/07 01:19:10;;;;;;;2.30;1.00;;;12.40;90.40;;;;;;5005916;28;20022;-91
2022/07/07 01:21:51;;;;;;;1.92;0.90;;;12.40;90.40;;;;;;5005731;28;20125;-88
2022/07/07 01:24:17;;;;;;;;;;;12.40;90.00;;;;;;5008538;28;20237;-90
2022/07/07 01:26:43;;;;;;;1.02;0.90;;;12.40;90.00;;;;;;5005550;28;19917;-89
2022/07/07 01:29:09;;;;;;;2.88;1.20;;;12.50;89.90;;;;;;5004959;28;20469;-89
2022/07/07 01:31:35;;;;;;;2.60;1.20;;;12.50;89.90;;;;;;4996488;28;20030;-90
2022/07/07 01:34:01;;;;;;;1.25;0.82;;;12.50;89.70;;;;;;5007128;28;20027;-90
2022/07/07 01:36:26;;;;;;;1.50;1.00;;;12.50;89.80;;;;;;5026638;28;20108;-89
2022/07/07 01:38:52;;;;;;;3.55;1.15;;;12.50;89.70;;;;;;4993847;28;20031;-89
2022/07/07 01:41:17;;;;;;;1.10;1.00;;;12.60;89.50;;;;;;4991928;28;20033;-89
2022/07/07 01:43:43;;;;;;;1.10;1.00;;;12.60;89.00;;;;;;4984317;28;20448;-89
2022/07/07 01:46:09;;;;;;;1.98;1.15;;;12.60;88.70;;;;;;4989148;28;20049;-90
2022/07/07 01:48:34;;;;;;;1.52;0.98;;;12.60;88.60;;;;;;5002944;28;20409;-90
2022/07/07 01:51:00;;;;;;;2.55;1.27;;;12.70;88.50;;;;;;5030024;28;20033;-90
2022/07/07 01:53:26;;;;;;;3.83;0.95;;;12.70;88.40;;;;;;5004014;28;20037;-89
2022/07/07 01:55:52;;;;;;;3.42;1.00;;;12.70;88.40;;;;;;5001748;28;20434;-88
2022/07/07 01:58:21;;;;;;;1.77;1.20;;;12.70;88.40;;;;;;5004617;28;20506;-89
2022/07/07 02:00:48;;;;;;;1.48;1.10;;;12.70;88.20;;;;;;5008301;28;20040;-90
2022/07/07 02:03:14;;;;;;;4.00;1.20;;;12.70;88.20;;;;;;5024757;28;20542;-89
2022/07/07 02:05:40;;;;;;;1.25;1.13;;;12.80;87.90;;;;;;4994193;28;20114;-89
2022/07/07 02:08:05;;;;;;;2.95;1.23;;;12.80;87.30;;;;;;4997804;28;20069;-90
2022/07/07 02:13:15;;;;;;;1.42;1.00;;;12.80;87.40;;;;;;4994925;28;20097;-89
2022/07/07 02:15:41;;;;;;;2.33;1.10;;;12.80;87.60;;;;;;5014553;28;20029;-89
2022/07/07 02:18:06;;;;;;;2.28;1.30;;;12.80;87.50;;;;;;5019169;28;20034;-90
2022/07/07 02:20:32;;;;;;;1.30;1.20;;;12.80;88.20;;;;;;5010224;28;20084;-89
2022/07/07 02:22:58;;;;;;;1.15;1.00;;;12.80;88.50;;;;;;4997729;28;20030;-89
2022/07/07 02:25:24;;;;;;;3.05;1.10;;;12.80;88.70;;;;;;4999929;28;20041;-90
2022/07/07 02:27:54;;;;;;;6.05;1.10;;;12.80;89.30;;;;;;5026080;28;20058;-90
2022/07/07 02:30:19;;;;;;;1.58;1.23;;;12.80;89.90;;;;;;5009125;28;20057;-91
2022/07/07 02:32:45;;;;;;;2.25;1.00;;;12.80;90.00;;;;;;4990778;28;20030;-90
2022/07/07 02:35:10;;;;;;;4.03;1.13;;;12.80;90.00;;;;;;5002715;28;20105;-90
2022/07/07 02:37:36;;;;;;;2.65;1.33;;;12.80;89.80;;;;;;5004482;28;20053;-90
2022/07/07 02:40:02;;;;;;;4.13;1.30;;;12.80;90.20;;;;;;5003178;28;20018;-89
2022/07/07 02:42:28;;;;;;;3.85;1.10;;;12.80;90.00;;;;;;5006917;28;20060;-90
2022/07/07 02:44:54;;;;;;;3.35;1.30;;;12.80;89.90;;;;;;4991183;28;20055;-90
2022/07/07 02:47:19;;;;;;;2.63;1.08;;;12.80;89.40;;;;;;4996488;28;20045;-90
2022/07/07 02:49:45;;;;;;;1.20;1.10;;;12.90;89.80;;;;;;5025986;28;20091;-92
2022/07/07 02:52:10;;;;;;;2.40;1.10;;;12.90;89.50;;;;;;5011065;28;20029;-92
2022/07/07 02:54:36;;;;;;;2.60;1.20;;;12.90;89.30;;;;;;5011883;28;20040;-91
2022/07/07 02:57:02;;;;;;;1.67;1.00;;;12.90;89.40;;;;;;4994036;28;20022;-92
2022/07/07 02:59:27;;;;;;;3.30;0.98;;;12.90;89.30;;;;;;4989036;28;20031;-92
2022/07/07 03:01:53;;;;;;;1.75;1.05;;;12.90;89.10;;;;;;4993030;28;20188;-93
2022/07/07 03:04:19;;;;;;;2.10;1.13;;;12.90;88.90;;;;;;5021745;28;20120;-92
2022/07/07 03:06:44;;;;;;;3.60;1.05;;;12.90;89.40;;;;;;4987526;28;20031;-93
2022/07/07 03:09:10;;;;;;;2.63;1.00;;;12.90;87.80;;;;;;5002280;28;20109;-93
2022/07/07 03:11:35;;;;;;;4.57;1.02;;;13.00;87.90;;;;;;5005867;28;20212;-92
2022/07/07 03:14:01;;;;;;;1.73;1.02;;;13.00;87.80;;;;;;5026506;28;20026;-92
2022/07/07 03:16:27;;;;;;;6.35;1.10;;;13.00;88.00;;;;;;4982250;28;20394;-92
2022/07/07 03:18:52;;;;;;;3.53;1.10;;;13.00;88.20;;;;;;5011536;28;20399;-93
2022/07/07 03:21:18;;;;;;;1.23;0.90;;;13.10;88.10;;;;;;5011423;28;20030;-92
2022/07/07 03:23:44;;;;;;;2.55;0.90;;;13.10;88.00;;;;;;5023892;28;20032;-92
2022/07/07 03:26:09;;;;;;;1.90;1.40;;;13.10;88.40;;;;;;5003657;28;20037;-92
2022/07/07 03:28:35;;;;;;;1.75;1.20;;;13.10;87.90;;;;;;4996541;28;20064;-90
2022/07/07 03:31:01;;;;;;;3.42;1.10;;;13.10;87.90;;;;;;5016696;28;20121;-90
2022/07/07 03:33:26;;;;;;;2.42;1.20;;;13.20;87.70;;;;;;5012060;28;20056;-89
2022/07/07 03:35:52;;;;;;;2.58;1.05;;;13.20;87.90;;;;;;5018284;28;20026;-89
2022/07/07 03:38:17;;;;;;;1.48;1.10;;;13.20;88.10;;;;;;5006116;28;20037;-90
2022/07/07 03:40:44;;;;;;;5.90;1.65;;;13.30;88.10;;;;;;5003532;28;20080;-89
2022/07/07 03:43:10;;;;;;;1.52;1.15;;;13.30;88.50;;;;;;5031899;28;20018;-89
2022/07/07 03:45:36;;;;;;;1.80;1.13;;;13.20;89.60;;;;;;5001272;28;20028;-90
2022/07/07 03:48:01;;;;;;;5.43;1.30;;;13.30;89.40;;;;;;5026136;28;20022;-90
2022/07/07 03:50:27;;;;;;;2.35;1.38;;;13.30;89.40;;;;;;5030217;28;20053;-89
2022/07/07 03:52:53;;;;;;;3.92;1.10;;;13.20;90.00;;;;;;5022271;28;20406;-91
2022/07/07 03:55:18;;;;;;;2.75;1.20;;;13.20;90.10;;;;;;5027741;28;20120;-90
2022/07/07 03:57:44;;;;;;;2.00;1.30;;;13.20;90.00;;;;;;5019832;28;20060;-91
2022/07/07 04:00:11;;;;;;;2.05;1.10;;;13.20;90.40;;;;;;5017314;28;20486;-91
2022/07/07 04:02:37;;;;;;;1.67;1.15;;;13.20;90.10;;;;;;5034141;28;20116;-89
2022/07/07 04:05:03;;;;;;;2.03;1.30;;;13.20;90.30;;;;;;5038078;28;20137;-90
2022/07/07 04:07:29;;;;;;;3.88;1.00;;;13.30;90.40;;;;;;5045397;28;20026;-90
2022/07/07 04:09:55;;;;;;;3.13;1.20;;;13.30;90.30;;;;;;5019376;28;20025;-89
2022/07/07 04:12:21;;;;;;;2.83;1.30;;;13.30;90.00;;;;;;5021170;28;20354;-89
2022/07/07 04:14:46;;;;;;;6.18;1.38;;;13.40;90.00;;;;;;5045926;28;20025;-88
2022/07/07 04:17:12;;;;;;;1.75;1.35;;;13.40;90.00;;;;;;5026573;28;20030;-89
2022/07/07 04:19:39;;;;;;;3.47;1.40;;;13.50;90.20;;;;;;5029467;28;20036;-91
2022/07/07 04:22:05;;;;;;;2.33;1.50;;;13.50;90.10;;;;;;5008253;28;20584;-93
2022/07/07 04:24:31;;;;;;;3.33;1.10;;;13.50;90.40;;;;;;5024373;28;20022;-91
2022/07/07 04:26:57;;;;;;;1.73;1.10;;;13.50;90.70;;;;;;5032953;28;20029;-91
2022/07/07 04:29:23;;;;;;;2.72;1.23;;;13.50;90.40;;;;;;5019920;28;20037;-92
2022/07/07 04:31:48;;;;;;;4.53;1.52;;;13.60;91.30;;;;;;5022255;28;20497;-92
2022/07/07 04:34:14;;;;;;;1.77;1.00;;;13.60;91.30;;;;;;5010853;28;20026;-92
2022/07/07 04:36:40;;;;;;;3.20;1.40;;;13.60;91.10;;;;;;5023530;28;20034;-92
2022/07/07 04:39:06;;;;;;;2.83;1.13;;;13.70;90.90;;;;;;5028157;28;20036;-90
2022/07/07 04:41:32;;;;;;;2.00;1.10;;;13.80;91.10;;;;;;5021303;28;20029;-90
2022/07/07 04:43:58;;;;;;;2.88;1.25;;;13.80;91.00;;;;;;5030112;28;20057;-90
2022/07/07 04:46:24;;;;;;;2.90;1.40;;;13.80;92.40;;;;;;5005209;28;20061;-90
2022/07/07 04:48:49;;;;;;;1.67;1.30;;;13.80;93.30;;;;;;5019378;28;20030;-90
2022/07/07 04:51:15;;;;;;;2.10;1.33;;;13.80;94.30;;;;;;5014091;28;20029;-90
2022/07/07 04:53:40;;;;;;;1.55;1.10;;;13.80;94.60;;;;;;5034611;28;20041;-90
2022/07/07 04:56:06;;;;;;;6.10;1.20;;;13.80;96.50;;;;;;5022308;28;20060;-90
2022/07/07 04:58:35;;;;;;;2.58;1.27;;;13.80;97.20;;;;;;5023586;28;20071;-90
2022/07/07 05:01:00;;;;;;;2.33;1.15;;;13.80;96.40;;;;;;5034724;28;20041;-90
2022/07/07 05:03:26;;;;;;;1.50;1.40;;;13.80;97.40;;;;;;5015742;28;20055;-92
2022/07/07 05:05:51;;;;;;;4.18;1.50;;;13.80;99.90;;;;;;5004755;28;20061;-89
2022/07/07 05:08:17;;;;;;;4.45;1.45;;;13.70;99.90;;;;;;5027443;28;20086;-91
2022/07/07 05:10:43;;;;;;;2.15;1.60;;;13.60;99.90;;;;;;5025705;28;20029;-91
2022/07/07 05:13:08;;;;;;;4.50;1.58;;;13.50;99.90;;;;;;5025892;28;20033;-91
2022/07/07 05:15:34;;;;;;;4.03;1.67;;;13.40;99.90;;;;;;5034833;28;20481;-90
2022/07/07 05:18:00;;;;;;;6.15;2.20;;;13.30;99.90;;;;;;5028036;28;20038;-91
2022/07/07 05:20:25;;;;;;;2.05;1.70;;;13.30;99.90;;;;;;5032679;28;20110;-91
2022/07/07 05:22:51;;;;;;;2.40;1.90;;;13.40;99.90;;;;;;5033049;28;20029;-91
2022/07/07 05:25:17;;;;;;;3.42;1.60;;;13.40;99.90;;;;;;5017175;28;20038;-90
2022/07/07 05:27:44;;;;;;;3.63;1.70;;;13.40;99.90;;;;;;5010673;28;20034;-89
2022/07/07 05:30:11;;;;;;;2.72;1.75;;;13.50;99.90;;;;;;5031484;28;20436;-92
2022/07/07 05:32:37;;;;;;;3.33;1.80;;;13.50;99.90;;;;;;5003509;28;20033;-90
2022/07/07 05:35:03;;;;;;;4.80;1.63;;;13.60;99.90;;;;;;5033274;28;20448;-91
2022/07/07 05:37:29;;;;;;;1.95;1.70;;;13.60;99.90;;;;;;5028956;28;20099;-91
2022/07/07 05:39:54;;;;;;;2.25;1.83;;;13.70;99.90;;;;;;5031542;28;20065;-90
2022/07/07 05:42:20;;;;;;;1.90;1.80;;;13.70;99.90;;;;;;5021888;28;20036;-91
2022/07/07 05:44:46;;;;;;;2.35;2.00;;;13.70;99.90;;;;;;5016333;28;20025;-92
2022/07/07 05:47:11;;;;;;;2.53;1.63;;;13.70;99.90;;;;;;5027253;28;20076;-90
2022/07/07 05:49:37;;;;;;;3.85;2.13;;;13.70;99.90;;;;;;4996673;28;20080;-90
2022/07/07 05:52:03;;;;;;;2.80;1.60;;;13.80;99.90;;;;;;5007416;28;20040;-92
2022/07/07 05:54:28;;;;;;;3.03;1.83;;;13.80;99.90;;;;;;5041822;28;20021;-93
2022/07/07 05:56:54;;;;;;;5.03;2.47;;;13.90;99.90;;;;;;5034141;28;20711;-92
2022/07/07 05:59:20;;;;;;;3.40;1.77;;;13.90;99.90;;;;;;5025082;28;20037;-92
2022/07/07 06:01:45;;;;;;;2.83;1.42;;;14.00;99.90;;;;;;5000384;28;20026;-92
2022/07/07 06:04:11;;;;;;;2.42;1.88;;;14.00;99.90;;;;;;5031598;28;20021;-91
2022/07/07 06:06:37;;;;;;;5.18;1.98;;;14.00;99.90;;;;;;5022540;28;20482;-91
2022/07/07 06:09:03;;;;;;;3.30;1.67;;;14.00;99.90;;;;;;5003616;28;20025;-91
2022/07/07 06:11:28;;;;;;;3.05;1.92;;;14.10;99.90;;;;;;5007092;28;20030;-91
2022/07/07 06:13:54;;;;;;;2.33;1.90;;;14.10;99.90;;;;;;5017972;28;20084;-91
2022/07/07 06:16:38;;;;;;;4.22;1.73;;;14.20;99.90;;;;;;5023220;28;20028;-91
2022/07/07 06:19:04;;;;;;;2.22;1.60;;;14.20;99.90;;;;;;5029336;28;20021;-93
2022/07/07 06:21:30;;;;;;;3.47;1.92;;;14.20;99.90;;;;;;5018044;28;20528;-91
2022/07/07 06:23:56;;;;;;;3.35;2.17;;;14.30;99.90;;;;;;5033633;28;20029;-91
2022/07/07 06:26:23;;;;;;;3.33;1.83;;;14.30;99.90;;;;;;5033273;28;20052;-91
2022/07/07 06:28:49;;;;;;;3.13;1.90;;;14.30;99.90;;;;;;5025295;28;20038;-93
2022/07/07 06:31:16;;;;;;;2.90;2.00;;;14.40;99.90;;;;;;5003269;28;20066;-94
2022/07/07 06:33:41;;;;;;;5.00;1.98;;;14.40;99.90;;;;;;5011183;28;20018;-92
2022/07/07 06:36:07;;;;;;;5.65;1.88;;;14.40;99.90;;;;;;5032919;28;20380;-92
2022/07/07 06:38:33;;;;;;;2.40;1.75;;;14.40;99.90;;;;;;5001320;28;20100;-90
2022/07/07 06:41:00;;;;;;;1.85;1.40;;;14.40;99.90;;;;;;5019816;28;20018;-91
2022/07/07 06:43:26;;;;;;;4.20;1.65;;;14.50;99.90;;;;;;5007422;28;20025;-91
2022/07/07 06:45:52;;;;;;;1.63;1.50;;;14.60;99.90;;;;;;5035181;28;20044;-91
2022/07/07 06:48:18;;;;;;;2.85;1.90;;;14.70;99.90;;;;;;5025741;28;20469;-91
2022/07/07 06:50:44;;;;;;;3.13;1.63;;;14.80;99.90;;;;;;5011885;28;20076;-91
2022/07/07 06:53:10;;;;;;;4.43;1.77;;;14.80;99.90;;;;;;5011982;28;20041;-91
2022/07/07 06:55:35;;;;;;;4.38;1.75;;;14.90;99.90;;;;;;5019422;28;20026;-91
2022/07/07 06:58:04;;;;;;;3.88;1.88;;;14.90;99.90;;;;;;5011647;28;20446;-89
2022/07/07 07:00:32;;;;;;;3.47;1.50;;;14.90;99.90;;;;;;5007353;28;20620;-90
2022/07/07 07:02:58;;;;;;;1.70;1.60;;;15.00;99.90;;;;;;5024529;28;20030;-91
2022/07/07 07:05:23;;;;;;;3.67;1.92;;;15.10;99.90;;;;;;5014547;28;20037;-92
2022/07/07 07:07:49;;;;;;;3.35;1.63;;;15.30;99.90;;;;;;5016553;28;20030;-91
2022/07/07 07:10:15;;;;;;;13.60;1.92;;;15.50;99.90;;;;;;5018755;28;20025;-92
2022/07/07 07:12:41;;;;;;;6.82;1.80;;;15.70;99.90;;;;;;5021833;28;20050;-91
2022/07/07 07:15:07;;;;;;;3.33;1.83;;;15.90;99.90;;;;;;5020266;28;20141;-90
2022/07/07 07:17:33;;;;;;;1.75;1.65;;;15.90;99.90;;;;;;5015113;28;20030;-91
2022/07/07 07:19:59;;;;;;;2.30;2.08;;;15.90;99.90;;;;;;4998780;28;20041;-91
2022/07/07 07:22:26;;;;;;;2.08;1.90;;;16.00;99.90;;;;;;5023902;28;20038;-90
2022/07/07 07:24:52;;;;;;;3.00;1.90;;;16.00;99.90;;;;;;5021170;28;20780;-91
2022/07/07 07:27:18;;;;;;;3.15;2.15;;;16.00;99.90;;;;;;5003413;28;20116;-91
2022/07/07 07:29:43;;;;;;;3.67;2.10;;;15.90;99.90;;;;;;5014066;28;20045;-91
2022/07/07 07:32:09;;;;;;;2.25;2.05;;;15.90;99.90;;;;;;5020866;28;20117;-91
2022/07/07 07:34:35;;;;;;;4.38;2.35;;;15.80;99.90;;;;;;5012548;28;20030;-92
2022/07/07 07:37:01;;;;;;;3.83;2.25;;;15.70;99.90;;;;;;5021610;28;20532;-91
2022/07/07 07:39:27;;;;;;;5.07;2.58;;;15.70;99.90;;;;;;5018549;28;20109;-91
2022/07/07 07:41:52;;;;;;;4.03;2.40;;;15.50;99.90;;;;;;5017294;28;20100;-90
2022/07/07 07:47:03;;;;;;;3.35;2.55;;;15.30;99.90;;;;;;5021319;28;20087;-91
2022/07/07 07:49:29;;;;;;;12.02;2.90;;;15.30;99.90;;;;;;5013205;28;20040;-91
2022/07/07 07:51:54;;;;;;;5.13;2.25;;;15.20;99.90;;;;;;4999951;28;20034;-91
2022/07/07 07:54:20;;;;;;;4.35;2.72;;;15.20;99.90;;;;;;5029568;28;20037;-92
2022/07/07 07:56:46;;;;;;;4.60;2.97;;;15.00;99.90;;;;;;5020453;28;20022;-90
2022/07/07 07:59:11;;;;;;;3.15;2.45;;;14.90;99.90;;;;;;5018310;28;20048;-92
2022/07/07 08:01:37;;;;;;;7.55;2.85;;;14.90;99.90;;;;;;5024234;28;20026;-91
2022/07/07 08:04:02;;;;;;;4.70;2.97;;;14.80;99.90;;;;;;5002985;28;20037;-91
2022/07/07 08:06:28;;;;;;;5.35;2.88;;;14.70;99.90;;;;;;5016283;28;20025;-90
2022/07/07 08:08:54;;;;;;;10.70;3.50;;;14.60;99.90;;;;;;5010805;28;20537;-91
2022/07/07 08:11:19;;;;;;;3.65;2.90;;;14.60;99.90;;;;;;5021429;28;20040;-90
2022/07/07 08:13:45;;;;;;;3.40;3.10;;;14.60;99.90;;;;;;5015107;28;20521;-91
2022/07/07 08:16:11;;;;;;;3.67;3.30;;;14.60;99.90;;;;;;5004383;28;20512;-91
2022/07/07 08:18:39;;;;;;;3.88;3.15;;;14.60;99.90;;;;;;5016579;28;20022;-91
2022/07/07 08:21:05;;;;;;;5.22;4.00;;;14.70;99.90;;;;;;5013630;28;20025;-91
2022/07/07 08:23:31;;;;;;;4.30;3.60;;;14.80;99.90;;;;;;5012846;28;20029;-91
2022/07/07 08:25:57;;;;;;;5.05;3.08;;;14.90;99.90;;;;;;5030319;28;20088;-91
2022/07/07 08:28:22;;;;;;;4.55;3.80;;;15.10;99.90;;;;;;5009576;28;20037;-92
2022/07/07 08:30:48;;;;;;;3.60;3.30;;;15.20;99.90;;;;;;5030986;28;20052;-91
2022/07/07 08:33:15;;;;;;;3.97;3.67;;;15.30;99.90;;;;;;5026877;28;20026;-92
2022/07/07 08:35:41;;;;;;;8.93;4.15;;;15.40;99.90;;;;;;5018431;28;20033;-92
2022/07/07 08:38:06;;;;;;;3.40;3.10;;;15.50;99.90;;;;;;5019352;28;20477;-91
2022/07/07 08:40:32;;;;;;;3.92;3.47;;;15.60;99.90;;;;;;5028310;28;20048;-92
2022/07/07 08:42:59;;;;;;;4.55;4.20;;;15.80;99.90;;;;;;5024277;28;20046;-89
2022/07/07 08:45:24;;;;;;;4.68;4.28;;;15.80;99.90;;;;;;5026908;28;20113;-90
2022/07/07 08:47:51;;;;;;;9.23;4.15;;;15.80;99.90;;;;;;5031857;28;20117;-91
2022/07/07 08:50:17;;;;;;;4.93;4.53;;;15.80;99.90;;;;;;5036156;28;20038;-90
2022/07/07 08:52:45;;;;;;;7.38;4.28;;;15.80;99.90;;;;;;5029777;28;20556;-90
2022/07/07 08:55:15;;;;;;;4.70;4.30;;;15.90;99.90;;;;;;5036324;28;20032;-91
2022/07/07 08:57:42;;;;;;;5.40;4.87;;;15.90;99.90;;;;;;5021500;28;20101;-92
2022/07/07 09:00:08;;;;;;;5.57;4.10;;;16.00;99.90;;;;;;5005648;28;20021;-91
2022/07/07 09:02:34;;;;;;;4.53;4.13;;;16.10;99.90;;;;;;5027343;28;20034;-90
2022/07/07 09:04:59;;;;;;;7.65;4.63;;;16.20;99.90;;;;;;5013456;28;20453;-91
2022/07/07 09:07:53;;;;;;;6.35;4.60;;;16.40;99.90;;;;;;5026325;28;20418;-91
2022/07/07 09:10:28;;;;;;;5.63;4.55;;;16.60;99.90;;;;;;5018306;28;20026;-92
2022/07/07 09:12:55;;;;;;;4.95;4.47;;;16.80;99.90;;;;;;5018659;28;20041;-92
2022/07/07 09:15:21;;;;;;;5.47;4.85;;;16.80;99.90;;;;;;5018768;28;20109;-91
2022/07/07 09:17:46;;;;;;;6.22;5.63;;;16.60;99.90;;;;;;5018965;28;20029;-91
2022/07/07 09:20:13;;;;;;;7.15;5.68;;;16.40;99.90;;;;;;5026537;28;20509;-92
2022/07/07 09:22:47;;;;;;;10.65;6.05;;;16.30;99.90;;;;;;5002051;28;20038;-89
2022/07/07 09:25:15;;;;;;;10.25;5.40;;;16.20;99.90;;;;;;5042052;28;20022;-91
2022/07/07 09:28:13;;;;;;;5.95;5.45;;;16.10;99.90;;;;;;5003681;28;20511;-91
2022/07/07 09:30:46;;;;;;;7.38;6.57;;;15.70;99.90;;;;;;4987263;28;20401;-90
2022/07/07 09:33:23;;;;;;;9.23;7.55;;;15.50;99.90;;;;;;5012731;28;20029;-90
2022/07/07 09:38:36;;;;;;;7.18;6.60;;;15.20;99.90;;;;;;5014283;28;20092;-91
2022/07/07 09:41:12;;;;;;;9.02;8.35;;;15.10;99.90;;;;;;5012568;28;20026;-91
2022/07/07 09:43:48;;;;;;;8.50;7.40;;;15.00;99.90;;;;;;5013909;28;20077;-89
2022/07/07 09:46:26;;;;;;;8.88;8.00;;;14.90;99.90;;;;;;5010915;28;20029;-90
2022/07/07 09:48:54;;;;;;;8.68;7.97;;;14.70;99.90;;;;;;5014412;28;20076;-90
2022/07/07 09:51:24;;;;;;;8.63;7.78;;;14.70;99.90;;;;;;5021222;28;20029;-89
2022/07/07 09:54:10;;;;;;;8.55;7.70;;;14.70;99.90;;;;;;5037927;28;20022;-89
2022/07/07 09:56:47;;;;;;;7.95;7.35;;;14.80;99.90;;;;;;5020502;28;20037;-89
2022/07/07 09:59:12;;;;;;;9.30;6.85;;;14.80;99.90;;;;;;5029290;28;20022;-88
2022/07/07 10:01:40;;;;;;;8.23;7.40;;;14.70;99.90;;;;;;5019870;28;20585;-87
2022/07/07 10:04:09;;;;;;;11.48;9.15;;;14.70;99.90;;;;;;5012633;28;20030;-89
2022/07/07 10:06:38;;;;;;;9.77;8.88;;;14.60;99.90;;;;;;4996201;28;20056;-89
2022/07/07 10:09:09;;;;;;;11.70;10.50;;;14.40;99.90;;;;;;5009604;28;20060;-90
2022/07/07 10:11:42;;;;;;;10.77;9.70;;;14.40;99.90;;;;;;4984325;28;20034;-90
2022/07/07 10:14:12;;;;;;;11.07;9.90;;;14.50;99.90;;;;;;5008986;28;20018;-90
2022/07/07 10:16:39;;;;;;;10.32;9.35;;;14.60;99.90;;;;;;5008245;28;20023;-91
2022/07/07 10:19:05;;;;;;;11.35;10.35;;;14.70;99.90;;;;;;5013398;28;20037;-91
2022/07/07 10:21:31;;;;;;;10.50;9.60;;;14.80;99.90;;;;;;4982204;28;20042;-90
2022/07/07 10:23:58;;;;;;;10.88;9.55;;;14.80;99.90;;;;;;5002489;28;20056;-89
2022/07/07 10:26:41;;;;;;;10.23;9.43;;;14.90;99.90;;;;;;5008622;28;20026;-90
2022/07/07 10:29:10;;;;;;;10.77;9.65;;;15.00;99.90;;;;;;5003163;28;20407;-91
2022/07/07 10:31:37;;;;;;;9.73;8.57;;;15.10;99.90;;;;;;4993300;28;20065;-91
2022/07/07 10:34:05;;;;;;;10.77;9.77;;;15.10;99.90;;;;;;5001058;28;20025;-91
2022/07/07 10:36:49;;;;;;;10.88;9.98;;;15.00;99.90;;;;;;5006731;28;20462;-90
2022/07/07 10:39:15;;;;;;;9.73;8.80;;;15.00;99.90;;;;;;5006023;28;20483;-91
2022/07/07 10:41:53;;;;;;;9.82;8.32;;;15.00;99.90;;;;;;5008632;28;20120;-90
2022/07/07 10:44:20;;;;;;;10.70;9.70;;;15.00;99.90;;;;;;5015666;28;20030;-92
2022/07/07 10:47:01;;;;;;;11.38;10.23;;;14.90;99.90;;;;;;5013060;28;20037;-91
2022/07/07 10:49:38;;;;;;;11.73;10.73;;;14.90;99.90;;;;;;5010421;28;20132;-90
2022/07/07 10:52:13;;;;;;;9.80;8.88;;;15.10;99.90;;;;;;5005587;28;20041;-90
2022/07/07 10:54:44;;;;;;;11.35;10.43;;;15.30;99.90;;;;;;5012742;28;20080;-90
2022/07/07 10:57:12;;;;;;;9.30;8.40;;;15.70;99.90;;;;;;5001189;28;20457;-91
2022/07/07 10:59:58;;;;;;;7.63;7.00;;;16.20;99.90;;;;;;5005541;28;20037;-91
2022/07/07 11:02:30;;;;;;;7.18;6.50;;;16.70;99.90;;;;;;4984424;28;20488;-91
2022/07/07 11:05:00;;;;;;;6.55;5.95;;;17.00;99.90;;;;;;4998413;28;20055;-91
2022/07/07 11:07:28;;;;;;;7.80;7.18;;;16.90;99.90;;;;;;5022705;28;20040;-92
2022/07/07 11:10:01;;;;;;;7.70;6.93;;;16.70;99.90;;;;;;5003210;28;20027;-91
2022/07/07 11:12:40;;;;;;;7.57;6.90;;;16.70;99.90;;;;;;4993097;28;20493;-93
2022/07/07 11:15:14;;;;;;;8.02;5.95;;;16.90;99.90;;;;;;5042427;28;20543;-91
2022/07/07 11:17:45;;;;;;;8.00;5.93;;;17.10;99.90;;;;;;5010490;28;20052;-92
2022/07/07 11:20:16;;;;;;;7.60;6.97;;;17.30;99.90;;;;;;5006392;28;20056;-91
2022/07/07 11:22:49;;;;;;;7.47;6.78;;;17.60;99.90;;;;;;5009622;28;20026;-92
2022/07/07 11:25:18;;;;;;;7.18;6.47;;;17.50;99.90;;;;;;5019855;28;20030;-92
2022/07/07 11:27:44;;;;;;;7.28;6.68;;;17.40;99.90;;;;;;4992462;28;20570;-90
2022/07/07 11:30:10;;;;;;;7.60;6.90;;;17.30;99.90;;;;;;5003624;28;20041;-89
2022/07/07 11:32:40;;;;;;;6.85;6.22;;;17.40;99.90;;;;;;5010120;28;20038;-88
2022/07/07 11:35:08;;;;;;;7.18;6.53;;;17.40;99.90;;;;;;5018301;28;20034;-89
2022/07/07 11:37:38;;;;;;;8.25;7.45;;;17.50;99.90;;;;;;5012575;28;20052;-87
2022/07/07 11:40:27;;;;;;;7.55;7.00;;;17.40;99.90;;;;;;4994585;28;20027;-87
2022/07/07 11:42:53;;;;;;;9.38;6.82;;;17.50;99.90;;;;;;5001772;28;20026;-88
2022/07/07 11:45:18;;;;;;;7.20;6.70;;;17.50;99.90;;;;;;5022019;28;20026;-88
2022/07/07 11:47:44;;;;;;;7.45;6.72;;;17.50;99.90;;;;;;4994788;28;20441;-88
2022/07/07 11:50:10;;;;;;;7.90;6.70;;;17.60;99.90;;;;;;5021577;28;20030;-88
2022/07/07 11:52:36;;;;;;;6.75;6.25;;;17.70;99.90;;;;;;5011375;28;20038;-88
2022/07/07 11:55:05;;;;;;;8.45;7.65;;;17.70;99.90;;;;;;4980574;28;20037;-88
2022/07/07 11:57:35;;;;;;;8.10;7.40;;;17.60;99.90;;;;;;4999201;28;20561;-87
2022/07/07 12:00:16;;;;;;;8.00;7.40;;;17.60;99.90;;;;;;4998928;28;20018;-86
2022/07/07 12:02:43;;;;;;;9.60;8.15;;;17.60;99.90;;;;;;5020066;28;20022;-90
2022/07/07 12:05:09;;;;;;;8.70;7.55;;;17.60;99.90;;;;;;5009023;28;20029;-88
2022/07/07 12:07:35;;;;;;;9.32;8.43;;;17.50;99.90;;;;;;4983135;28;20398;-90
2022/07/07 12:10:01;;;;;;;8.93;8.23;;;17.40;99.90;;;;;;5001832;28;20033;-88
2022/07/07 12:12:26;;;;;;;9.32;8.63;;;17.10;99.90;;;;;;5004326;28;20037;-89
2022/07/07 12:14:52;;;;;;;9.52;8.68;;;17.10;99.90;;;;;;5000185;28;20026;-88
2022/07/07 12:17:39;;;;;;;8.52;7.90;;;17.10;99.90;;;;;;4997852;28;20034;-88
2022/07/07 12:20:06;;;;;;;8.90;8.13;;;17.20;99.90;;;;;;5015716;28;20034;-89
2022/07/07 12:22:40;;;;;;;8.73;8.07;;;17.00;99.90;;;;;;5015379;28;20498;-88
2022/07/07 12:25:10;;;;;;;8.20;7.60;;;16.80;99.90;;;;;;5006121;28;20054;-88
2022/07/07 12:27:55;;;;;;;11.25;10.15;;;16.50;99.90;;;;;;5006426;28;20014;-87
2022/07/07 12:30:21;;;;;;;9.77;9.07;;;16.70;99.90;;;;;;5010940;28;20022;-88
2022/07/07 12:32:46;;;;;;;9.75;9.10;;;16.80;99.90;;;;;;5004178;28;20030;-88
2022/07/07 12:35:37;;;;;;;10.55;9.65;;;16.90;99.90;;;;;;5011071;28;20491;-88
2022/07/07 12:38:04;;;;;;;;;;;16.80;99.90;;;;;;5012424;28;20027;-89
2022/07/07 12:40:31;;;;;;;10.93;10.02;;;16.50;99.90;;;;;;4998157;28;19909;-87
2022/07/07 12:43:04;;;;;;;12.30;11.18;;;16.40;99.90;;;;;;4990870;28;20486;-87
2022/07/07 12:45:30;;;;;;;11.32;10.38;;;16.10;99.90;;;;;;5003967;28;20027;-88
2022/07/07 12:47:56;;;;;;;11.57;10.70;;;15.90;99.90;;;;;;4999130;28;20026;-89
2022/07/07 12:50:23;;;;;;;15.40;14.02;;;15.70;99.90;;;;;;5009211;28;20022;-90
2022/07/07 12:53:00;;;;;;;13.95;12.77;;;15.70;99.90;;;;;;5001089;28;20532;-90
2022/07/07 12:55:44;;;;;;;13.82;12.63;;;15.70;99.90;;;;;;5008660;28;20045;-89